createdAt,value
2022-12-04T00:00:00.244Z,4.3
2022-12-04T00:10:00.220Z,4.6
2022-12-04T00:20:00.232Z,4.6
2022-12-04T00:30:00.226Z,4.4
2022-12-04T00:40:00.369Z,4.3
2022-12-04T00:50:00.282Z,4.3
2022-12-04T01:00:00.376Z,4.1
2022-12-04T01:10:00.237Z,4.0
2022-12-04T01:20:00.224Z,4.1
2022-12-04T01:30:00.242Z,4.1
2022-12-04T01:40:00.233Z,4.1
2022-12-04T01:50:00.261Z,4.0
2022-12-04T02:00:00.284Z,4.2
2022-12-04T02:10:00.377Z,4.1
2022-12-04T02:20:00.449Z,4.0
2022-12-04T02:30:00.522Z,3.8
2022-12-04T02:40:00.976Z,3.8
2022-12-04T02:50:00.713Z,3.8
2022-12-04T03:00:00.872Z,3.6
2022-12-04T03:10:01.268Z,3.6
2022-12-04T03:20:00.623Z,3.4
2022-12-04T03:30:00.359Z,3.5
2022-12-04T03:40:00.254Z,3.5
2022-12-04T03:50:00.208Z,3.5
2022-12-04T04:00:00.425Z,3.6
2022-12-04T04:10:00.233Z,3.8
2022-12-04T04:20:00.236Z,3.8
2022-12-04T04:30:00.311Z,3.7
2022-12-04T04:40:00.248Z,3.6
2022-12-04T04:50:00.219Z,3.5
2022-12-04T05:00:00.249Z,3.6
2022-12-04T05:10:00.227Z,3.5
2022-12-04T05:20:00.413Z,3.7
2022-12-04T05:30:00.241Z,3.9
2022-12-04T05:40:00.262Z,4.0
2022-12-04T05:50:00.247Z,4.1
2022-12-04T06:00:00.313Z,4.2
2022-12-04T06:10:00.350Z,4.1
2022-12-04T06:20:00.563Z,4.2
2022-12-04T06:30:00.317Z,4.2
2022-12-04T06:40:00.519Z,4.4
2022-12-04T06:50:00.578Z,4.3
2022-12-04T07:00:00.809Z,4.7
2022-12-04T07:10:00.673Z,4.8
2022-12-04T07:20:00.985Z,4.9
2022-12-04T07:30:01.015Z,5.1
2022-12-04T07:40:01.215Z,5.2
2022-12-04T07:50:00.271Z,6.4
2022-12-04T08:00:00.271Z,7.8
2022-12-04T08:10:00.233Z,7.8
2022-12-04T08:20:00.258Z,6.0
2022-12-04T08:30:00.284Z,6.1
2022-12-04T08:40:00.277Z,6.8
2022-12-04T08:50:00.220Z,7.9
2022-12-04T09:00:00.272Z,8.5
2022-12-04T09:10:00.570Z,8.2
2022-12-04T09:20:01.479Z,7.8
2022-12-04T09:30:00.301Z,7.7
2022-12-04T09:40:00.613Z,7.9
2022-12-04T09:50:00.474Z,7.5
2022-12-04T10:00:00.298Z,7.4
2022-12-04T10:10:00.249Z,8.0
2022-12-04T10:20:00.344Z,8.6
2022-12-04T10:30:00.291Z,8.4
2022-12-04T10:40:00.246Z,9.0
2022-12-04T10:50:00.253Z,9.1
2022-12-04T11:00:00.615Z,9.2
2022-12-04T11:10:00.248Z,10.5
2022-12-04T11:20:00.250Z,10.1
2022-12-04T11:30:00.252Z,10.2
2022-12-04T11:40:00.252Z,10.2
2022-12-04T11:50:00.526Z,9.4
2022-12-04T12:00:00.281Z,9.9
2022-12-04T12:10:00.252Z,8.6
2022-12-04T12:20:00.226Z,8.8
2022-12-04T12:30:00.384Z,8.5
2022-12-04T12:40:00.600Z,8.5
2022-12-04T12:50:00.288Z,8.2
2022-12-04T13:00:00.870Z,8.0
2022-12-04T13:10:00.743Z,8.0
2022-12-04T13:20:03.068Z,8.1
2022-12-04T13:30:00.599Z,8.5
2022-12-04T13:40:00.419Z,8.6
2022-12-04T13:50:04.926Z,8.1
2022-12-04T14:00:00.262Z,7.3
2022-12-04T14:10:00.237Z,7.6
2022-12-04T14:20:05.867Z,7.5
2022-12-04T14:30:00.227Z,7.3
2022-12-04T14:40:00.227Z,7.4
2022-12-04T14:50:00.252Z,7.4
2022-12-04T15:00:00.358Z,7.4
2022-12-04T15:10:00.276Z,7.5
2022-12-04T15:20:00.281Z,7.4
2022-12-04T15:30:00.267Z,7.4
2022-12-04T15:40:00.294Z,7.3
2022-12-04T15:50:00.272Z,7.2
2022-12-04T16:00:00.247Z,7.2
2022-12-04T16:10:03.677Z,7.2
2022-12-04T16:20:00.351Z,7.3
2022-12-04T16:30:00.477Z,7.2
2022-12-04T16:40:00.613Z,7.2
2022-12-04T16:50:00.583Z,7.0
2022-12-04T17:00:00.777Z,6.8
2022-12-04T17:10:00.736Z,7.1
2022-12-04T17:20:00.649Z,7.1
2022-12-04T17:30:00.362Z,7.1
2022-12-04T17:40:00.245Z,7.1
2022-12-04T17:50:00.267Z,7.1
2022-12-04T18:00:00.279Z,7.1
2022-12-04T18:10:00.601Z,7.0
2022-12-04T18:20:04.688Z,6.7
2022-12-04T18:30:00.433Z,6.6
2022-12-04T18:40:06.415Z,6.3
2022-12-04T18:50:00.628Z,6.2
2022-12-04T19:00:00.535Z,6.3
2022-12-04T19:10:11.655Z,6.3
2022-12-04T19:20:00.245Z,6.1
2022-12-04T19:30:00.274Z,6.3
2022-12-04T19:40:00.322Z,6.0
2022-12-04T19:50:00.364Z,6.3
2022-12-04T20:00:00.748Z,6.1
2022-12-04T20:10:00.637Z,6.3
2022-12-04T20:20:01.616Z,6.0
2022-12-04T20:30:00.222Z,6.2
2022-12-04T20:40:00.248Z,6.2
2022-12-04T20:50:00.247Z,6.0
2022-12-04T21:00:00.302Z,6.1
2022-12-04T21:10:00.509Z,6.1
2022-12-04T21:20:07.097Z,5.8
2022-12-04T21:30:00.426Z,5.8
2022-12-04T21:40:01.044Z,5.8
2022-12-04T21:50:00.977Z,5.7
2022-12-04T22:00:00.713Z,5.5
2022-12-04T22:10:05.464Z,5.5
2022-12-04T22:20:00.675Z,5.5
2022-12-04T22:30:00.397Z,5.4
2022-12-04T22:40:00.474Z,5.4
2022-12-04T22:50:00.373Z,5.5
2022-12-04T23:00:00.378Z,5.5
2022-12-04T23:10:00.524Z,5.4
2022-12-04T23:20:00.259Z,5.2
2022-12-04T23:30:00.249Z,5.4
2022-12-04T23:40:00.563Z,5.3
2022-12-04T23:50:00.449Z,5.2
